createdAt,value
2019-06-07T00:02:13.960Z,7.23
2019-06-07T00:04:41.955Z,9.40
2019-06-07T00:07:10.278Z,8.17
2019-06-07T00:09:50.556Z,8.17
2019-06-07T00:12:21.097Z,7.03
2019-06-07T00:14:46.044Z,9.70
2019-06-07T00:17:15.909Z,8.97
2019-06-07T00:19:43.766Z,10.00
2019-06-07T00:22:19.639Z,7.97
2019-06-07T00:24:41.975Z,8.43
2019-06-07T00:27:11.629Z,12.13
2019-06-07T00:29:39.478Z,9.83
2019-06-07T00:32:11.584Z,8.60
2019-06-07T00:34:40.537Z,8.27
2019-06-07T00:37:11.181Z,6.73
2019-06-07T00:39:45.024Z,8.50
2019-06-07T00:42:16.688Z,10.10
2019-06-07T00:44:41.135Z,9.67
2019-06-07T00:47:07.964Z,7.20
2019-06-07T00:49:40.898Z,9.93
2019-06-07T00:52:04.737Z,12.43
2019-06-07T00:54:31.608Z,10.10
2019-06-07T00:56:58.422Z,9.13
2019-06-07T00:59:37.553Z,11.37
2019-06-07T01:02:14.631Z,10.17
2019-06-07T01:04:43.688Z,8.43
2019-06-07T01:07:10.691Z,8.67
2019-06-07T01:09:37.939Z,9.87
2019-06-07T01:12:07.859Z,9.03
2019-06-07T01:14:34.696Z,10.00
2019-06-07T01:18:25.950Z,10.23
2019-06-07T01:20:26.155Z,11.30
2019-06-07T01:22:55.596Z,10.93
2019-06-07T01:25:31.439Z,10.83
2019-06-07T01:28:00.699Z,10.57
2019-06-07T01:30:29.398Z,13.00
2019-06-07T01:32:58.648Z,9.27
2019-06-07T01:35:25.673Z,9.80
2019-06-07T01:37:55.228Z,9.70
2019-06-07T01:40:46.617Z,10.90
2019-06-07T01:43:19.383Z,10.17
2019-06-07T01:45:46.269Z,10.43
2019-06-07T01:48:19.818Z,12.23
2019-06-07T01:50:51.121Z,14.97
2019-06-07T01:53:21.660Z,10.73
2019-06-07T01:55:53.711Z,11.53
2019-06-07T01:58:22.904Z,9.37
2019-06-07T02:00:50.702Z,10.93
2019-06-07T02:03:26.963Z,10.53
2019-06-07T02:06:00.285Z,13.10
2019-06-07T02:08:34.351Z,8.43
2019-06-07T02:11:01.621Z,12.47
2019-06-07T02:13:30.740Z,12.07
2019-06-07T02:15:59.827Z,12.87
2019-06-07T02:18:34.326Z,10.17
2019-06-07T02:20:58.389Z,9.70
2019-06-07T02:23:33.390Z,14.30
2019-06-07T02:26:08.291Z,13.37
2019-06-07T02:28:45.084Z,8.80
2019-06-07T02:31:09.946Z,13.53
2019-06-07T02:33:40.259Z,11.43
2019-06-07T02:36:05.464Z,11.70
2019-06-07T02:38:37.175Z,10.77
2019-06-07T02:41:01.012Z,12.87
2019-06-07T02:43:35.138Z,10.67
2019-06-07T02:46:24.039Z,10.73
2019-06-07T02:48:39.440Z,11.90
2019-06-07T02:51:02.402Z,11.63
2019-06-07T02:53:33.663Z,12.27
2019-06-07T02:56:37.235Z,12.23
2019-06-07T02:58:42.817Z,12.00
2019-06-07T03:01:10.726Z,15.20
2019-06-07T03:03:39.927Z,11.43
2019-06-07T03:06:08.224Z,10.77
2019-06-07T03:08:36.754Z,10.50
2019-06-07T03:11:03.765Z,14.60
2019-06-07T03:13:34.903Z,15.17
2019-06-07T03:16:03.415Z,18.63
2019-06-07T03:18:52.019Z,13.23
2019-06-07T03:21:23.680Z,13.40
2019-06-07T03:23:57.293Z,15.93
2019-06-07T03:26:24.504Z,14.63
2019-06-07T03:28:51.327Z,11.67
2019-06-07T03:31:20.068Z,11.93
2019-06-07T03:33:46.836Z,11.90
2019-06-07T03:36:24.079Z,13.33
2019-06-07T03:38:42.877Z,12.20
2019-06-07T03:41:09.696Z,14.60
2019-06-07T03:43:40.090Z,14.20
2019-06-07T03:46:11.177Z,14.73
2019-06-07T03:48:41.105Z,12.57
2019-06-07T03:51:24.070Z,14.73
2019-06-07T03:53:40.695Z,14.40
2019-06-07T03:56:06.056Z,14.27
2019-06-07T03:58:49.623Z,16.10
2019-06-07T04:01:11.711Z,11.90
2019-06-07T04:03:46.414Z,14.30
2019-06-07T04:06:08.275Z,14.73
2019-06-07T04:08:42.090Z,15.33
2019-06-07T04:11:21.062Z,15.43
2019-06-07T04:13:47.813Z,13.60
2019-06-07T04:16:15.592Z,14.93
2019-06-07T04:18:42.722Z,12.67
2019-06-07T04:21:09.718Z,14.83
2019-06-07T04:23:45.302Z,17.33
2019-06-07T04:26:21.522Z,15.30
2019-06-07T04:29:31.596Z,16.57
2019-06-07T04:31:20.112Z,13.33
2019-06-07T04:33:52.688Z,14.33
2019-06-07T04:36:39.199Z,16.57
2019-06-07T04:38:49.422Z,16.77
2019-06-07T04:41:16.653Z,13.07
2019-06-07T04:43:43.411Z,17.07
2019-06-07T04:46:11.015Z,14.37
2019-06-07T04:48:43.938Z,12.47
2019-06-07T04:51:26.065Z,16.17
2019-06-07T04:54:00.512Z,16.57
2019-06-07T04:56:44.529Z,15.50
2019-06-07T04:59:53.390Z,14.27
2019-06-07T05:01:48.397Z,17.10
2019-06-07T05:04:15.349Z,15.97
2019-06-07T05:06:44.449Z,14.77
2019-06-07T05:09:13.188Z,15.70
2019-06-07T05:11:44.903Z,16.77
2019-06-07T05:14:13.919Z,15.37
2019-06-07T05:16:44.948Z,14.70
2019-06-07T05:19:19.615Z,17.73
2019-06-07T05:22:03.560Z,18.00
2019-06-07T05:24:20.155Z,13.00
2019-06-07T05:33:09.968Z,14.67
2019-06-07T05:35:59.976Z,12.27
2019-06-07T05:38:27.421Z,13.70
2019-06-07T05:40:57.496Z,14.90
2019-06-07T05:43:26.721Z,15.57
2019-06-07T05:45:56.891Z,15.63
2019-06-07T05:48:46.530Z,14.67
2019-06-07T05:51:14.129Z,14.80
2019-06-07T05:53:43.102Z,14.53
2019-06-07T05:56:13.040Z,11.80
2019-06-07T05:58:46.219Z,13.43
2019-06-07T06:03:51.065Z,14.53
2019-06-07T06:06:19.551Z,12.30
2019-06-07T06:08:47.928Z,12.70
2019-06-07T06:11:16.732Z,11.97
2019-06-07T06:14:07.424Z,12.17
2019-06-07T06:16:20.744Z,11.83
2019-06-07T06:19:02.493Z,17.70
2019-06-07T06:22:07.570Z,13.70
2019-06-07T06:25:22.624Z,14.83
2019-06-07T06:27:55.655Z,11.77
2019-06-07T06:29:50.422Z,14.17
2019-06-07T06:35:24.215Z,12.70
2019-06-07T06:38:26.494Z,11.40
2019-06-07T06:41:16.140Z,10.53
2019-06-07T06:44:34.850Z,10.47
2019-06-07T06:47:54.243Z,11.00
2019-06-07T06:50:52.702Z,9.80
2019-06-07T06:54:00.886Z,12.30
2019-06-07T06:57:21.973Z,12.90
2019-06-07T07:00:11.674Z,12.37
2019-06-07T07:03:39.321Z,11.30
2019-06-07T07:06:25.995Z,9.67
2019-06-07T07:09:42.387Z,9.10
2019-06-07T07:16:16.845Z,9.90
2019-06-07T07:23:17.430Z,11.33
2019-06-07T07:26:22.034Z,7.70
2019-06-07T07:29:12.528Z,10.00
2019-06-07T07:32:54.127Z,8.87
2019-06-07T07:36:22.678Z,8.07
2019-06-07T07:39:04.527Z,7.33
2019-06-07T07:46:03.430Z,7.30
2019-06-07T07:48:44.126Z,8.03
2019-06-07T07:51:31.816Z,8.77
2019-06-07T07:58:23.294Z,7.20
2019-06-07T08:01:14.988Z,8.87
2019-06-07T08:03:48.155Z,8.70
2019-06-07T08:06:23.466Z,8.60
2019-06-07T08:08:51.332Z,7.73
2019-06-07T08:11:35.288Z,5.00
2019-06-07T08:14:25.518Z,9.67
2019-06-07T08:17:00.436Z,6.73
2019-06-07T08:19:38.050Z,6.40
2019-06-07T08:22:11.273Z,5.90
2019-06-07T08:24:41.130Z,6.07
2019-06-07T08:27:25.917Z,5.07
2019-06-07T08:29:45.625Z,6.57
2019-06-07T08:32:11.253Z,10.63
2019-06-07T08:34:39.693Z,7.03
2019-06-07T08:37:12.349Z,7.20
2019-06-07T08:39:49.817Z,8.20
2019-06-07T08:42:25.173Z,8.40
2019-06-07T08:44:51.892Z,6.00
2019-06-07T08:47:22.990Z,5.90
2019-06-07T08:49:59.615Z,6.87
2019-06-07T08:52:30.262Z,9.03
2019-06-07T08:55:08.014Z,5.67
2019-06-07T08:57:35.695Z,6.50
2019-06-07T09:00:27.430Z,7.07
2019-06-07T09:02:35.215Z,6.00
2019-06-07T09:05:11.777Z,5.90
2019-06-07T09:07:33.061Z,6.77
2019-06-07T09:10:14.790Z,5.67
2019-06-07T09:12:40.990Z,6.03
2019-06-07T09:15:20.441Z,7.10
2019-06-07T09:18:29.412Z,7.73
2019-06-07T09:20:35.800Z,8.73
2019-06-07T09:22:46.167Z,7.37
2019-06-07T09:25:21.274Z,7.97
2019-06-07T09:27:45.007Z,5.83
2019-06-07T09:30:18.607Z,8.23
2019-06-07T09:32:44.097Z,5.00
2019-06-07T09:35:17.258Z,6.50
2019-06-07T09:40:27.582Z,5.60
2019-06-07T09:43:46.708Z,8.00
2019-06-07T09:45:29.249Z,6.27
2019-06-07T09:47:58.775Z,6.37
2019-06-07T09:50:26.087Z,6.03
2019-06-07T09:52:58.486Z,6.13
2019-06-07T09:55:25.059Z,6.57
2019-06-07T09:57:53.875Z,5.90
2019-06-07T10:00:39.943Z,6.27
2019-06-07T10:03:00.055Z,5.87
2019-06-07T10:05:29.871Z,10.40
2019-06-07T10:08:16.097Z,6.03
2019-06-07T10:13:01.727Z,5.57
2019-06-07T10:15:29.304Z,9.27
2019-06-07T10:18:00.740Z,6.77
2019-06-07T10:20:34.625Z,6.77
2019-06-07T10:23:03.724Z,7.53
2019-06-07T10:25:33.882Z,7.90
2019-06-07T10:28:08.066Z,11.37
2019-06-07T10:30:40.704Z,5.77
2019-06-07T10:33:08.667Z,9.03
2019-06-07T10:35:36.679Z,6.77
2019-06-07T10:38:06.641Z,6.83
2019-06-07T10:40:34.252Z,5.70
2019-06-07T10:43:07.098Z,9.50
2019-06-07T10:45:35.372Z,7.33
2019-06-07T10:48:18.704Z,3.33
2019-06-07T10:53:39.374Z,5.50
2019-06-07T10:56:08.898Z,5.60
2019-06-07T10:58:48.606Z,11.03
2019-06-07T11:01:17.600Z,7.60
2019-06-07T11:03:45.617Z,6.70
2019-06-07T11:06:17.232Z,5.07
2019-06-07T11:08:49.451Z,4.67
2019-06-07T11:11:17.567Z,3.90
2019-06-07T11:13:46.371Z,7.13
2019-06-07T11:16:16.919Z,5.97
2019-06-07T11:18:47.014Z,7.60
2019-06-07T11:21:15.036Z,8.20
2019-06-07T11:23:50.273Z,7.33
2019-06-07T11:26:18.666Z,6.03
2019-06-07T11:28:46.849Z,4.80
2019-06-07T11:31:18.963Z,5.13
2019-06-07T11:33:47.235Z,4.67
2019-06-07T11:36:19.839Z,6.87
2019-06-07T11:38:49.252Z,5.00
2019-06-07T11:41:19.962Z,6.10
2019-06-07T11:43:47.480Z,4.77
2019-06-07T11:46:17.497Z,7.77
2019-06-07T11:48:45.340Z,7.50
2019-06-07T11:51:13.136Z,5.83
2019-06-07T11:53:46.852Z,5.63
2019-06-07T11:56:21.464Z,4.97
2019-06-07T11:58:49.496Z,3.40
2019-06-07T12:01:22.180Z,5.60
2019-06-07T12:03:49.776Z,5.37
2019-06-07T12:06:20.047Z,4.63
2019-06-07T12:08:47.500Z,5.07
2019-06-07T12:11:16.369Z,6.37
2019-06-07T12:13:44.378Z,6.07
2019-06-07T12:16:15.379Z,9.53
2019-06-07T12:18:43.214Z,6.90
2019-06-07T12:21:11.532Z,7.57
2019-06-07T12:23:38.985Z,5.70
2019-06-07T12:26:07.369Z,7.03
2019-06-07T12:28:35.253Z,6.27
2019-06-07T12:31:04.016Z,5.60
2019-06-07T12:33:31.412Z,5.40
2019-06-07T12:36:04.912Z,5.60
2019-06-07T12:38:34.461Z,5.50
2019-06-07T12:41:16.217Z,10.97
2019-06-07T12:43:43.858Z,5.50
2019-06-07T12:46:19.088Z,5.37
2019-06-07T12:48:55.870Z,7.53
2019-06-07T12:51:23.567Z,5.70
2019-06-07T12:53:52.012Z,7.43
2019-06-07T12:56:24.220Z,5.80
2019-06-07T12:58:53.715Z,7.80
2019-06-07T13:01:23.052Z,4.80
2019-06-07T13:03:54.060Z,7.50
2019-06-07T13:06:23.702Z,9.13
2019-06-07T13:08:55.117Z,7.10
2019-06-07T13:11:28.156Z,6.40
2019-06-07T13:13:56.463Z,5.67
2019-06-07T13:16:26.771Z,5.10
2019-06-07T13:18:54.441Z,5.60
2019-06-07T13:21:25.072Z,4.87
2019-06-07T13:23:57.301Z,7.57
2019-06-07T13:26:25.509Z,4.30
2019-06-07T13:28:57.251Z,3.93
2019-06-07T13:31:33.431Z,5.77
2019-06-07T13:34:01.014Z,3.17
2019-06-07T13:36:32.660Z,8.67
2019-06-07T13:39:06.794Z,4.97
2019-06-07T13:41:43.470Z,6.27
2019-06-07T13:44:13.007Z,3.73
2019-06-07T13:46:40.659Z,9.53
2019-06-07T13:49:08.217Z,3.90
2019-06-07T13:51:35.650Z,4.60
2019-06-07T13:54:03.576Z,6.27
2019-06-07T13:56:31.107Z,3.57
2019-06-07T13:58:59.452Z,4.53
2019-06-07T14:01:27.261Z,7.67
2019-06-07T14:03:57.117Z,4.37
2019-06-07T14:06:25.503Z,5.87
2019-06-07T14:08:53.840Z,7.63
2019-06-07T14:11:27.935Z,4.73
2019-06-07T14:13:56.350Z,5.77
2019-06-07T14:16:24.335Z,5.23
2019-06-07T14:18:52.541Z,5.47
2019-06-07T14:21:20.425Z,5.47
2019-06-07T14:23:49.339Z,7.43
2019-06-07T14:26:17.911Z,8.03
2019-06-07T14:28:45.680Z,6.40
2019-06-07T14:31:13.705Z,5.90
2019-06-07T14:33:41.350Z,7.23
2019-06-07T14:36:12.502Z,5.43
2019-06-07T14:38:40.172Z,6.10
2019-06-07T14:41:09.792Z,6.03
2019-06-07T14:43:40.951Z,4.10
2019-06-07T14:46:11.612Z,4.97
2019-06-07T14:48:40.218Z,3.30
2019-06-07T14:51:12.182Z,5.27
2019-06-07T14:53:40.094Z,6.97
2019-06-07T14:56:13.461Z,9.90
2019-06-07T14:58:43.486Z,12.33
2019-06-07T15:01:13.345Z,7.00
2019-06-07T15:04:11.149Z,6.63
2019-06-07T15:06:43.262Z,7.40
2019-06-07T15:09:11.724Z,7.00
2019-06-07T15:11:47.398Z,5.93
2019-06-07T15:14:16.844Z,7.20
2019-06-07T15:16:45.239Z,8.73
2019-06-07T15:19:16.773Z,5.87
2019-06-07T15:21:46.627Z,5.43
2019-06-07T15:24:14.411Z,7.27
2019-06-07T15:26:42.522Z,6.17
2019-06-07T15:29:29.656Z,4.40
2019-06-07T15:32:14.957Z,7.67
2019-06-07T15:37:53.206Z,4.33
2019-06-07T15:40:20.998Z,6.77
2019-06-07T15:42:53.176Z,6.17
2019-06-07T15:45:50.639Z,7.47
2019-06-07T15:48:34.122Z,3.73
2019-06-07T15:51:03.234Z,8.00
2019-06-07T15:53:34.143Z,5.40
2019-06-07T15:56:00.977Z,5.50
2019-06-07T15:58:30.836Z,6.10
2019-06-07T16:01:05.176Z,6.77
2019-06-07T16:03:42.178Z,5.93
2019-06-07T16:06:19.491Z,5.20
2019-06-07T16:08:52.129Z,3.33
2019-06-07T16:11:20.286Z,4.87
2019-06-07T16:13:52.192Z,3.70
2019-06-07T16:16:20.677Z,5.90
2019-06-07T16:18:48.762Z,5.57
2019-06-07T16:21:22.836Z,5.30
2019-06-07T16:23:53.930Z,5.43
2019-06-07T16:26:25.138Z,5.30
2019-06-07T16:28:53.029Z,3.20
2019-06-07T16:31:21.121Z,5.83
2019-06-07T16:33:49.931Z,4.80
2019-06-07T16:36:17.631Z,6.43
2019-06-07T16:38:46.887Z,5.40
2019-06-07T16:41:18.909Z,4.17
2019-06-07T16:43:59.247Z,4.27
2019-06-07T16:46:28.235Z,3.43
2019-06-07T16:48:55.893Z,2.27
2019-06-07T16:51:23.825Z,4.13
2019-06-07T16:53:53.233Z,2.13
2019-06-07T16:56:25.350Z,3.17
2019-06-07T16:58:58.229Z,4.00
2019-06-07T17:01:27.080Z,3.47
2019-06-07T17:03:57.060Z,4.13
2019-06-07T17:06:25.876Z,2.40
2019-06-07T17:08:53.967Z,2.83
2019-06-07T17:11:27.285Z,3.43
2019-06-07T17:13:57.607Z,5.40
2019-06-07T17:16:25.211Z,1.73
2019-06-07T17:18:52.896Z,3.93
2019-06-07T17:21:26.475Z,3.10
2019-06-07T17:24:00.065Z,3.83
2019-06-07T17:26:28.741Z,1.80
2019-06-07T17:28:56.705Z,2.93
2019-06-07T17:31:28.536Z,1.30
2019-06-07T17:33:57.916Z,1.00
2019-06-07T17:36:26.056Z,2.40
2019-06-07T17:38:55.071Z,2.37
2019-06-07T17:41:25.629Z,4.07
2019-06-07T17:44:00.570Z,1.63
2019-06-07T17:46:28.670Z,1.67
2019-06-07T17:48:57.374Z,2.93
2019-06-07T17:51:25.988Z,2.43
2019-06-07T17:53:58.668Z,2.53
2019-06-07T17:56:28.754Z,1.57
2019-06-07T17:59:03.551Z,3.27
2019-06-07T18:01:41.423Z,2.03
2019-06-07T18:04:06.067Z,1.40
2019-06-07T18:06:35.905Z,2.33
2019-06-07T18:09:06.370Z,2.43
2019-06-07T18:11:34.171Z,2.13
2019-06-07T18:14:10.334Z,3.07
2019-06-07T18:16:31.140Z,2.23
2019-06-07T18:18:59.231Z,1.93
2019-06-07T18:21:35.759Z,1.40
2019-06-07T18:24:04.121Z,2.50
2019-06-07T18:26:31.713Z,1.97
2019-06-07T18:29:00.180Z,1.10
2019-06-07T18:31:27.897Z,2.23
2019-06-07T18:34:06.680Z,1.20
2019-06-07T18:36:44.105Z,2.73
2019-06-07T18:39:31.951Z,1.37
2019-06-07T18:42:59.519Z,1.30
2019-06-07T18:45:17.213Z,3.47
2019-06-07T18:47:55.772Z,1.57
2019-06-07T18:50:22.398Z,1.23
2019-06-07T18:52:50.873Z,1.93
2019-06-07T18:55:19.142Z,1.23
2019-06-07T18:57:54.403Z,1.43
2019-06-07T19:00:22.638Z,1.33
2019-06-07T19:02:51.753Z,2.77
2019-06-07T19:05:20.548Z,2.43
2019-06-07T19:07:52.535Z,1.80
2019-06-07T19:10:22.111Z,0.93
2019-06-07T19:12:50.838Z,1.27
2019-06-07T19:15:26.755Z,1.17
2019-06-07T19:17:55.918Z,2.60
2019-06-07T19:20:29.310Z,1.27
2019-06-07T19:22:58.366Z,1.70
2019-06-07T19:25:28.124Z,2.23
2019-06-07T19:28:01.082Z,1.40
2019-06-07T19:30:31.021Z,1.53
2019-06-07T19:32:59.650Z,2.77
2019-06-07T19:35:28.664Z,1.33
2019-06-07T19:37:56.376Z,4.20
2019-06-07T19:40:26.526Z,2.23
2019-06-07T19:42:54.391Z,2.90
2019-06-07T19:45:30.196Z,1.70
2019-06-07T19:47:54.758Z,2.43
2019-06-07T19:50:27.295Z,1.30
2019-06-07T19:52:55.097Z,1.50
2019-06-07T19:55:22.886Z,1.00
2019-06-07T19:57:51.867Z,1.10
2019-06-07T20:00:20.969Z,1.23
2019-06-07T20:02:48.565Z,1.70
2019-06-07T20:05:22.470Z,2.37
2019-06-07T20:07:54.330Z,2.17
2019-06-07T20:10:28.077Z,2.67
2019-06-07T20:13:00.794Z,1.53
2019-06-07T20:15:32.013Z,3.83
2019-06-07T20:18:01.288Z,2.40
2019-06-07T20:20:30.048Z,6.00
2019-06-07T20:22:59.141Z,2.43
2019-06-07T20:25:27.069Z,1.87
2019-06-07T20:27:56.956Z,4.10
2019-06-07T20:30:25.850Z,1.70
2019-06-07T20:32:53.607Z,2.33
2019-06-07T20:35:27.523Z,2.37
2019-06-07T20:37:56.770Z,1.93
2019-06-07T20:40:25.066Z,1.37
2019-06-07T20:42:52.590Z,2.77
2019-06-07T20:45:32.978Z,1.83
2019-06-07T20:47:53.509Z,3.03
2019-06-07T20:50:29.131Z,1.73
2019-06-07T20:52:59.818Z,2.63
2019-06-07T20:55:27.789Z,2.13
2019-06-07T20:57:55.785Z,2.90
2019-06-07T21:00:25.806Z,2.57
2019-06-07T21:02:53.966Z,2.63
2019-06-07T21:05:21.647Z,3.57
2019-06-07T21:07:55.614Z,3.37
2019-06-07T21:10:23.561Z,2.20
2019-06-07T21:12:56.891Z,4.90
2019-06-07T21:15:27.590Z,3.40
2019-06-07T21:17:55.031Z,1.50
2019-06-07T21:20:22.765Z,4.93
2019-06-07T21:22:50.280Z,6.47
2019-06-07T21:25:23.839Z,1.97
2019-06-07T21:27:52.359Z,5.70
2019-06-07T21:30:22.050Z,2.90
2019-06-07T21:33:07.977Z,2.53
2019-06-07T21:35:36.032Z,1.20
2019-06-07T21:38:06.068Z,1.80
2019-06-07T21:40:33.725Z,1.33
2019-06-07T21:43:02.097Z,3.73
2019-06-07T21:45:41.549Z,1.57
2019-06-07T21:48:19.876Z,2.73
2019-06-07T21:51:02.136Z,5.30
2019-06-07T21:53:30.130Z,2.43
2019-06-07T21:56:04.812Z,2.70
2019-06-07T21:58:33.332Z,3.60
2019-06-07T22:01:24.749Z,3.13
2019-06-07T22:03:53.799Z,4.77
2019-06-07T22:06:24.449Z,1.83
2019-06-07T22:08:52.519Z,3.03
2019-06-07T22:11:20.316Z,3.90
2019-06-07T22:13:52.040Z,2.47
2019-06-07T22:16:28.870Z,3.30
2019-06-07T22:18:57.141Z,3.40
2019-06-07T22:21:33.924Z,1.80
2019-06-07T22:24:04.817Z,3.17
2019-06-07T22:26:40.849Z,2.23
2019-06-07T22:29:12.355Z,3.17
2019-06-07T22:31:42.995Z,4.73
2019-06-07T22:34:10.837Z,5.03
2019-06-07T22:36:44.138Z,4.83
2019-06-07T22:39:11.777Z,2.63
2019-06-07T22:41:42.382Z,4.00
2019-06-07T22:44:10.748Z,2.67
2019-06-07T22:46:38.463Z,4.33
2019-06-07T22:49:07.094Z,1.73
2019-06-07T22:51:39.295Z,1.43
2019-06-07T22:54:09.879Z,2.97
2019-06-07T22:56:47.699Z,3.47
2019-06-07T22:59:18.556Z,4.27
2019-06-07T23:01:44.998Z,5.37
2019-06-07T23:04:12.499Z,2.97
2019-06-07T23:06:40.465Z,2.43
2019-06-07T23:09:08.856Z,2.80
2019-06-07T23:11:42.917Z,2.87
2019-06-07T23:14:15.871Z,4.60
2019-06-07T23:16:55.017Z,3.93
2019-06-07T23:19:13.806Z,3.70
2019-06-07T23:21:41.734Z,4.23
2019-06-07T23:24:09.821Z,3.13
2019-06-07T23:26:37.461Z,2.87
2019-06-07T23:29:05.522Z,1.80
2019-06-07T23:31:33.399Z,4.90
2019-06-07T23:34:05.684Z,2.53
2019-06-07T23:36:33.179Z,1.70
2019-06-07T23:39:04.408Z,4.17
2019-06-07T23:41:32.865Z,2.93
2019-06-07T23:44:02.579Z,6.03
2019-06-07T23:46:30.204Z,2.13
2019-06-07T23:49:02.199Z,3.67
2019-06-07T23:51:30.487Z,3.70
2019-06-07T23:54:05.115Z,5.37
2019-06-07T23:56:32.775Z,2.03
2019-06-07T23:59:00.873Z,2.03
